createdAt,value
2018-11-01T00:02:16.218Z,95992.75
2018-11-01T00:04:44.558Z,95982.30
2018-11-01T00:07:12.869Z,95974.48
2018-11-01T00:09:41.178Z,95984.55
2018-11-01T00:12:09.557Z,95983.69
2018-11-01T00:14:37.862Z,95972.41
2018-11-01T00:17:06.841Z,95973.23
2018-11-01T00:19:35.234Z,95978.65
2018-11-01T00:22:03.763Z,95968.70
2018-11-01T00:24:32.116Z,95981.92
2018-11-01T00:27:00.425Z,95986.20
2018-11-01T00:29:28.749Z,95987.39
2018-11-01T00:31:57.161Z,95979.45
2018-11-01T00:34:25.613Z,95988.03
2018-11-01T00:36:53.996Z,95993.41
2018-11-01T00:39:22.501Z,95992.37
2018-11-01T00:41:50.896Z,95991.86
2018-11-01T00:44:19.224Z,95993.83
2018-11-01T00:46:47.781Z,95995.33
2018-11-01T00:49:16.776Z,95987.38
2018-11-01T00:51:45.073Z,95996.34
2018-11-01T00:54:13.483Z,95987.42
2018-11-01T00:56:41.840Z,95973.55
2018-11-01T00:59:10.214Z,95988.29
2018-11-01T01:01:38.531Z,95978.38
2018-11-01T01:04:06.857Z,95980.73
2018-11-01T01:06:35.359Z,95973.72
2018-11-01T01:09:04.936Z,95967.08
2018-11-01T01:11:33.223Z,95968.81
2018-11-01T01:14:01.699Z,95964.56
2018-11-01T01:16:30.027Z,95968.96
2018-11-01T01:18:58.438Z,95965.62
2018-11-01T01:21:26.653Z,95970.62
2018-11-01T01:23:55.061Z,95975.59
2018-11-01T01:26:23.425Z,95964.23
2018-11-01T01:28:51.774Z,95961.02
2018-11-01T01:31:20.370Z,95966.92
2018-11-01T01:33:48.738Z,95955.58
2018-11-01T01:36:17.114Z,95964.67
2018-11-01T01:38:45.509Z,95966.64
2018-11-01T01:41:13.990Z,95988.48
2018-11-01T01:43:42.417Z,95975.29
2018-11-01T01:46:10.734Z,95985.69
2018-11-01T01:48:39.041Z,95992.95
2018-11-01T01:51:07.386Z,95985.05
2018-11-01T01:53:35.815Z,95965.89
2018-11-01T01:56:04.273Z,95956.67
2018-11-01T01:58:32.718Z,95976.09
2018-11-01T02:01:01.305Z,95959.91
2018-11-01T02:03:29.605Z,95964.45
2018-11-01T02:05:57.881Z,95970.44
2018-11-01T02:08:26.217Z,95970.11
2018-11-01T02:10:54.505Z,95969.47
2018-11-01T02:13:23.001Z,95954.09
2018-11-01T02:15:51.486Z,95960.84
2018-11-01T02:18:19.854Z,95951.66
2018-11-01T02:20:48.298Z,95946.78
2018-11-01T02:23:16.641Z,95952.75
2018-11-01T02:25:44.997Z,95956.73
2018-11-01T02:28:14.832Z,95944.98
2018-11-01T02:30:43.202Z,95928.45
2018-11-01T02:33:11.740Z,95930.77
2018-11-01T02:35:40.118Z,95924.77
2018-11-01T02:38:08.578Z,95922.57
2018-11-01T02:40:36.751Z,95928.33
2018-11-01T02:43:05.403Z,95925.05
2018-11-01T02:45:33.817Z,95926.55
2018-11-01T02:48:02.346Z,95921.73
2018-11-01T02:50:30.661Z,95918.42
2018-11-01T02:52:59.025Z,95906.48
2018-11-01T02:55:27.375Z,95895.55
2018-11-01T02:57:55.754Z,95884.59
2018-11-01T03:00:24.197Z,95877.11
2018-11-01T03:02:52.611Z,95886.21
2018-11-01T03:05:21.095Z,95886.72
2018-11-01T03:07:49.511Z,95890.72
2018-11-01T03:10:17.798Z,95880.52
2018-11-01T03:12:46.144Z,95880.19
2018-11-01T03:15:15.324Z,95881.14
2018-11-01T03:17:43.673Z,95866.70
2018-11-01T03:20:12.579Z,95856.67
2018-11-01T03:22:41.288Z,95852.30
2018-11-01T03:25:10.161Z,95847.44
2018-11-01T03:27:38.820Z,95844.92
2018-11-01T03:30:07.723Z,95858.30
2018-11-01T03:32:36.311Z,95855.02
2018-11-01T03:35:04.825Z,95867.03
2018-11-01T03:37:33.242Z,95871.77
2018-11-01T03:40:01.571Z,95884.77
2018-11-01T03:42:30.088Z,95893.94
2018-11-01T03:44:58.406Z,95878.91
2018-11-01T03:47:26.778Z,95866.53
2018-11-01T03:49:55.176Z,95865.56
2018-11-01T03:52:23.870Z,95853.34
2018-11-01T03:54:52.354Z,95852.52
2018-11-01T03:57:20.826Z,95857.31
2018-11-01T03:59:49.271Z,95848.66
2018-11-01T04:02:17.530Z,95840.70
2018-11-01T04:04:45.852Z,95824.47
2018-11-01T04:07:14.163Z,95825.09
2018-11-01T04:09:42.757Z,95827.23
2018-11-01T04:12:11.087Z,95826.73
2018-11-01T04:14:39.494Z,95799.05
2018-11-01T04:17:07.940Z,95795.52
2018-11-01T04:19:36.334Z,95795.30
2018-11-01T04:22:06.566Z,95790.20
2018-11-01T04:24:36.210Z,95804.98
2018-11-01T04:27:04.940Z,95798.43
2018-11-01T04:29:34.292Z,95804.51
2018-11-01T04:32:02.871Z,95792.20
2018-11-01T04:34:31.309Z,95808.83
2018-11-01T04:36:59.625Z,95805.73
2018-11-01T04:39:28.160Z,95813.50
2018-11-01T04:41:56.581Z,95831.75
2018-11-01T04:44:24.919Z,95830.08
2018-11-01T04:46:53.207Z,95809.67
2018-11-01T04:49:21.667Z,95808.80
2018-11-01T04:51:50.862Z,95794.30
2018-11-01T04:54:19.170Z,95795.11
2018-11-01T04:56:47.552Z,95772.70
2018-11-01T04:59:15.957Z,95778.15
2018-11-01T05:01:44.293Z,95773.20
2018-11-01T05:04:12.557Z,95768.56
2018-11-01T05:06:41.159Z,95762.86
2018-11-01T05:09:09.407Z,95755.86
2018-11-01T05:11:37.722Z,95771.19
2018-11-01T05:14:06.146Z,95772.14
2018-11-01T05:16:34.553Z,95781.27
2018-11-01T05:19:02.946Z,95772.69
2018-11-01T05:21:31.230Z,95775.41
2018-11-01T05:24:01.471Z,95779.16
2018-11-01T05:26:30.885Z,95762.03
2018-11-01T05:28:59.341Z,95771.89
2018-11-01T05:31:27.721Z,95758.08
2018-11-01T05:33:56.034Z,95752.45
2018-11-01T05:36:24.401Z,95736.89
2018-11-01T05:38:52.818Z,95727.73
2018-11-01T05:41:21.235Z,95751.91
2018-11-01T05:43:49.746Z,95768.16
2018-11-01T05:46:18.038Z,95756.31
2018-11-01T05:48:46.497Z,95758.00
2018-11-01T05:51:14.865Z,95749.94
2018-11-01T05:53:43.217Z,95741.54
2018-11-01T05:56:11.493Z,95720.48
2018-11-01T05:58:39.933Z,95726.27
2018-11-01T06:01:11.618Z,95742.64
2018-11-01T06:03:40.517Z,95739.30
2018-11-01T06:06:08.901Z,95736.50
2018-11-01T06:08:40.359Z,95752.59
2018-11-01T06:11:08.720Z,95749.95
2018-11-01T06:13:36.969Z,95747.48
2018-11-01T06:16:06.125Z,95730.27
2018-11-01T06:18:34.682Z,95732.92
2018-11-01T06:21:03.083Z,95733.05
2018-11-01T06:23:31.441Z,95737.47
2018-11-01T06:25:59.854Z,95733.95
2018-11-01T06:28:28.278Z,95728.53
2018-11-01T06:30:56.681Z,95719.63
2018-11-01T06:33:25.094Z,95717.22
2018-11-01T06:35:56.432Z,95717.46
2018-11-01T06:38:24.797Z,95720.67
2018-11-01T06:40:53.202Z,95713.48
2018-11-01T06:43:21.546Z,95713.42
2018-11-01T06:45:50.061Z,95712.73
2018-11-01T06:48:18.663Z,95708.59
2018-11-01T06:50:47.001Z,95711.02
2018-11-01T06:53:15.547Z,95716.14
2018-11-01T06:55:44.207Z,95727.05
2018-11-01T06:58:12.578Z,95723.27
2018-11-01T07:00:41.010Z,95727.54
2018-11-01T07:03:09.514Z,95726.36
2018-11-01T07:05:37.904Z,95736.56
2018-11-01T07:08:06.359Z,95732.23
2018-11-01T07:10:34.771Z,95760.15
2018-11-01T07:13:03.107Z,95766.08
2018-11-01T07:15:31.485Z,95779.47
2018-11-01T07:17:59.995Z,95774.47
2018-11-01T07:20:28.462Z,95776.66
2018-11-01T07:22:56.846Z,95785.23
2018-11-01T07:25:25.347Z,95771.95
2018-11-01T07:27:53.593Z,95770.77
2018-11-01T07:30:21.882Z,95781.48
2018-11-01T07:32:50.340Z,95781.42
2018-11-01T07:35:18.630Z,95758.41
2018-11-01T07:37:47.610Z,95747.97
2018-11-01T07:40:17.374Z,95740.47
2018-11-01T07:42:45.727Z,95741.41
2018-11-01T07:45:14.558Z,95743.36
2018-11-01T07:47:43.869Z,95750.48
2018-11-01T07:50:13.262Z,95745.89
2018-11-01T07:52:42.192Z,95749.73
2018-11-01T07:55:12.585Z,95732.71
2018-11-01T07:57:41.189Z,95731.05
2018-11-01T08:00:12.006Z,95716.70
2018-11-01T08:02:40.813Z,95717.70
2018-11-01T08:05:10.450Z,95710.38
2018-11-01T08:07:38.982Z,95712.45
2018-11-01T08:10:10.247Z,95729.63
2018-11-01T08:12:38.644Z,95716.69
2018-11-01T08:15:09.645Z,95708.38
2018-11-01T08:17:38.000Z,95707.87
2018-11-01T08:20:07.885Z,95712.14
2018-11-01T08:22:36.046Z,95700.88
2018-11-01T08:25:04.478Z,95694.19
2018-11-01T08:27:33.066Z,95694.23
2018-11-01T08:30:01.608Z,95675.77
2018-11-01T08:32:30.304Z,95663.77
2018-11-01T08:34:58.649Z,95665.65
2018-11-01T08:37:27.034Z,95666.71
2018-11-01T08:39:55.440Z,95670.91
2018-11-01T08:42:25.024Z,95668.59
2018-11-01T08:44:53.397Z,95657.98
2018-11-01T08:47:21.763Z,95656.34
2018-11-01T08:49:50.150Z,95653.20
2018-11-01T08:52:18.538Z,95648.71
2018-11-01T08:54:46.938Z,95654.63
2018-11-01T08:57:15.310Z,95653.64
2018-11-01T08:59:50.287Z,95657.53
2018-11-01T09:02:18.704Z,95666.88
2018-11-01T09:04:47.245Z,95661.41
2018-11-01T09:07:15.613Z,95672.00
2018-11-01T09:09:43.894Z,95675.30
2018-11-01T09:12:12.435Z,95679.95
2018-11-01T09:14:40.894Z,95701.42
2018-11-01T09:17:09.178Z,95713.98
2018-11-01T09:19:37.546Z,95715.79
2018-11-01T09:22:05.892Z,95715.59
2018-11-01T09:24:34.177Z,95725.41
2018-11-01T09:27:02.648Z,95717.95
2018-11-01T09:29:30.815Z,95723.88
2018-11-01T09:31:59.134Z,95724.61
2018-11-01T09:34:27.510Z,95712.08
2018-11-01T09:36:55.923Z,95693.45
2018-11-01T09:39:24.259Z,95695.60
2018-11-01T09:41:52.566Z,95688.69
2018-11-01T09:44:21.086Z,95688.41
2018-11-01T09:46:49.818Z,95677.80
2018-11-01T09:49:17.758Z,95673.16
2018-11-01T09:51:46.099Z,95670.02
2018-11-01T09:54:14.423Z,95669.73
2018-11-01T09:56:42.722Z,95654.19
2018-11-01T09:59:11.507Z,95650.95
2018-11-01T10:01:40.014Z,95655.26
2018-11-01T10:04:08.942Z,95658.84
2018-11-01T10:06:37.291Z,95650.26
2018-11-01T10:09:07.443Z,95644.68
2018-11-01T10:11:35.987Z,95655.20
2018-11-01T10:14:04.394Z,95662.36
2018-11-01T10:16:32.842Z,95654.31
2018-11-01T10:19:01.115Z,95650.52
2018-11-01T10:21:29.535Z,95661.25
2018-11-01T10:23:57.759Z,95642.84
2018-11-01T10:26:26.120Z,95638.03
2018-11-01T10:28:54.515Z,95619.71
2018-11-01T10:31:26.250Z,95619.41
2018-11-01T10:33:54.714Z,95612.41
2018-11-01T10:36:23.327Z,95613.50
2018-11-01T10:38:51.705Z,95603.78
2018-11-01T10:41:19.979Z,95593.82
2018-11-01T10:43:48.372Z,95585.13
2018-11-01T10:46:16.663Z,95571.53
2018-11-01T10:48:45.015Z,95575.86
2018-11-01T10:51:13.412Z,95591.89
2018-11-01T10:53:41.816Z,95609.44
2018-11-01T10:56:10.150Z,95619.48
2018-11-01T10:58:38.567Z,95617.98
2018-11-01T11:01:12.331Z,95598.58
2018-11-01T11:03:40.547Z,95578.16
2018-11-01T11:06:09.162Z,95582.61
2018-11-01T11:08:37.559Z,95568.56
2018-11-01T11:11:05.994Z,95580.35
2018-11-01T11:13:34.596Z,95594.66
2018-11-01T11:16:03.021Z,95586.37
2018-11-01T11:18:31.339Z,95595.21
2018-11-01T11:20:59.876Z,95623.96
2018-11-01T11:23:28.035Z,95631.08
2018-11-01T11:25:56.445Z,95636.70
2018-11-01T11:28:24.746Z,95640.77
2018-11-01T11:30:53.149Z,95634.85
2018-11-01T11:33:21.685Z,95631.82
2018-11-01T11:35:50.038Z,95612.06
2018-11-01T11:38:18.321Z,95617.19
2018-11-01T11:40:46.722Z,95611.27
2018-11-01T11:43:15.054Z,95601.84
2018-11-01T11:45:43.331Z,95613.82
2018-11-01T11:48:11.845Z,95618.25
2018-11-01T11:50:40.191Z,95624.06
2018-11-01T11:53:08.581Z,95608.39
2018-11-01T11:55:36.989Z,95611.02
2018-11-01T11:58:05.337Z,95615.73
2018-11-01T12:00:33.740Z,95611.23
2018-11-01T12:03:02.318Z,95606.95
2018-11-01T12:05:30.737Z,95593.23
2018-11-01T12:07:59.054Z,95592.98
2018-11-01T12:10:27.487Z,95588.11
2018-11-01T12:12:55.784Z,95590.34
2018-11-01T12:15:24.158Z,95588.81
2018-11-01T12:17:52.473Z,95590.23
2018-11-01T12:20:20.857Z,95580.64
2018-11-01T12:22:49.321Z,95581.59
2018-11-01T12:25:17.738Z,95590.45
2018-11-01T12:27:46.106Z,95574.06
2018-11-01T12:30:14.463Z,95582.17
2018-11-01T12:32:42.947Z,95585.77
2018-11-01T12:35:11.673Z,95599.89
2018-11-01T12:37:40.046Z,95585.02
2018-11-01T12:40:10.202Z,95601.52
2018-11-01T12:42:38.677Z,95602.69
2018-11-01T12:45:08.730Z,95587.94
2018-11-01T12:47:37.374Z,95601.56
2018-11-01T12:50:08.053Z,95618.13
2018-11-01T12:52:36.229Z,95627.93
2018-11-01T12:55:04.646Z,95637.16
2018-11-01T12:57:33.002Z,95653.62
2018-11-01T13:00:01.330Z,95651.89
2018-11-01T13:02:29.764Z,95643.98
2018-11-01T13:04:58.102Z,95652.81
2018-11-01T13:07:26.605Z,95644.51
2018-11-01T13:09:54.983Z,95638.78
2018-11-01T13:12:23.530Z,95647.41
2018-11-01T13:14:51.838Z,95653.74
2018-11-01T13:17:20.266Z,95654.88
2018-11-01T13:19:48.658Z,95656.28
2018-11-01T13:22:16.950Z,95657.21
2018-11-01T13:24:45.379Z,95663.37
2018-11-01T13:27:13.658Z,95671.31
2018-11-01T13:29:42.009Z,95664.14
2018-11-01T13:32:10.398Z,95650.34
2018-11-01T13:34:38.866Z,95661.72
2018-11-01T13:37:07.234Z,95660.10
2018-11-01T13:39:35.956Z,95668.38
2018-11-01T13:42:04.210Z,95670.02
2018-11-01T13:44:32.678Z,95682.29
2018-11-01T13:47:01.252Z,95684.95
2018-11-01T13:49:29.532Z,95662.45
2018-11-01T13:51:58.238Z,95682.53
2018-11-01T13:54:26.675Z,95693.70
2018-11-01T13:56:54.915Z,95701.97
2018-11-01T13:59:23.246Z,95691.56
2018-11-01T14:01:51.663Z,95706.39
2018-11-01T14:04:20.205Z,95704.14
2018-11-01T14:06:48.683Z,95702.72
2018-11-01T14:09:17.101Z,95701.19
2018-11-01T14:11:45.449Z,95699.77
2018-11-01T14:14:14.129Z,95709.08
2018-11-01T14:16:42.153Z,95720.73
2018-11-01T14:19:10.485Z,95730.05
2018-11-01T14:21:38.769Z,95743.15
2018-11-01T14:24:07.442Z,95731.69
2018-11-01T14:26:35.737Z,95729.45
2018-11-01T14:29:04.114Z,95734.36
2018-11-01T14:31:32.698Z,95746.44
2018-11-01T14:34:01.078Z,95751.74
2018-11-01T14:36:29.464Z,95758.50
2018-11-01T14:38:57.834Z,95765.67
2018-11-01T14:41:26.125Z,95767.01
2018-11-01T14:43:54.407Z,95763.20
2018-11-01T14:46:22.786Z,95762.60
2018-11-01T14:48:51.142Z,95773.03
2018-11-01T14:51:19.427Z,95770.19
2018-11-01T14:53:48.037Z,95772.50
2018-11-01T14:56:17.810Z,95785.30
2018-11-01T14:58:46.339Z,95779.88
2018-11-01T15:01:12.854Z,95772.30
2018-11-01T15:03:41.266Z,95783.45
2018-11-01T15:06:09.754Z,95797.77
2018-11-01T15:08:38.044Z,95797.20
2018-11-01T15:11:06.551Z,95792.77
2018-11-01T15:13:34.922Z,95796.66
2018-11-01T15:16:03.334Z,95801.48
2018-11-01T15:18:31.700Z,95802.59
2018-11-01T15:21:00.067Z,95811.71
2018-11-01T15:23:28.451Z,95810.17
2018-11-01T15:25:56.761Z,95822.97
2018-11-01T15:28:25.090Z,95825.34
2018-11-01T15:30:53.596Z,95826.06
2018-11-01T15:33:21.939Z,95824.00
2018-11-01T15:35:50.446Z,95818.87
2018-11-01T15:38:18.822Z,95814.78
2018-11-01T15:40:51.337Z,95819.50
2018-11-01T15:43:19.683Z,95818.28
2018-11-01T15:45:47.969Z,95822.34
2018-11-01T15:48:16.303Z,95827.29
2018-11-01T15:50:44.609Z,95826.97
2018-11-01T15:53:12.893Z,95830.34
2018-11-01T15:55:41.266Z,95835.77
2018-11-01T15:58:09.634Z,95843.86
2018-11-01T16:00:37.988Z,95859.93
2018-11-01T16:03:06.382Z,95865.42
2018-11-01T16:05:34.685Z,95878.63
2018-11-01T16:08:03.351Z,95874.52
2018-11-01T16:10:32.902Z,95877.56
2018-11-01T16:13:01.544Z,95873.24
2018-11-01T16:15:29.909Z,95880.38
2018-11-01T16:17:58.409Z,95893.03
2018-11-01T16:20:26.838Z,95894.52
2018-11-01T16:22:55.254Z,95905.12
2018-11-01T16:25:23.628Z,95903.02
2018-11-01T16:27:52.045Z,95914.69
2018-11-01T16:30:20.385Z,95919.65
2018-11-01T16:32:48.774Z,95917.89
2018-11-01T16:35:17.281Z,95911.22
2018-11-01T16:37:45.623Z,95908.37
2018-11-01T16:40:13.998Z,95899.78
2018-11-01T16:42:42.515Z,95903.52
2018-11-01T16:45:13.233Z,95918.02
2018-11-01T16:47:41.785Z,95933.45
2018-11-01T16:50:10.693Z,95935.19
2018-11-01T16:52:40.130Z,95935.33
2018-11-01T16:55:08.485Z,95941.34
2018-11-01T16:57:36.807Z,95953.98
2018-11-01T17:00:07.312Z,95955.23
2018-11-01T17:02:35.759Z,95957.95
2018-11-01T17:05:04.309Z,95970.30
2018-11-01T17:07:32.613Z,95978.50
2018-11-01T17:10:01.155Z,95972.03
2018-11-01T17:12:29.702Z,95977.80
2018-11-01T17:14:58.279Z,95989.34
2018-11-01T17:17:26.635Z,95991.45
2018-11-01T17:19:55.042Z,95988.85
2018-11-01T17:22:23.469Z,95989.47
2018-11-01T17:24:51.926Z,95988.53
2018-11-01T17:27:20.302Z,95990.33
2018-11-01T17:29:48.633Z,96002.27
2018-11-01T17:32:17.013Z,96007.38
2018-11-01T17:34:45.421Z,96006.06
2018-11-01T17:37:13.894Z,96005.88
2018-11-01T17:39:42.554Z,96014.83
2018-11-01T17:42:11.017Z,96031.34
2018-11-01T17:44:39.313Z,96035.54
2018-11-01T17:47:07.815Z,96030.13
2018-11-01T17:49:36.381Z,96032.98
2018-11-01T17:52:04.686Z,96040.78
2018-11-01T17:54:33.070Z,96038.52
2018-11-01T17:57:02.047Z,96057.62
2018-11-01T17:59:30.418Z,96052.59
2018-11-01T18:01:58.825Z,96048.15
2018-11-01T18:04:27.177Z,96046.18
2018-11-01T18:06:55.670Z,96061.55
2018-11-01T18:09:24.046Z,96065.88
2018-11-01T18:11:52.622Z,96067.57
2018-11-01T18:14:20.924Z,96070.48
2018-11-01T18:16:49.195Z,96079.52
2018-11-01T18:19:17.686Z,96088.14
2018-11-01T18:21:46.046Z,96092.95
2018-11-01T18:24:14.414Z,96090.68
2018-11-01T18:26:42.819Z,96093.22
2018-11-01T18:29:11.156Z,96100.07
2018-11-01T18:31:39.438Z,96097.42
2018-11-01T18:34:07.847Z,96104.04
2018-11-01T18:36:36.261Z,96116.77
2018-11-01T18:39:05.790Z,96120.91
2018-11-01T18:41:34.037Z,96122.56
2018-11-01T18:44:02.321Z,96124.92
2018-11-01T18:46:30.726Z,96122.95
2018-11-01T18:48:59.150Z,96114.37
2018-11-01T18:51:27.604Z,96132.05
2018-11-01T18:53:56.089Z,96130.05
2018-11-01T18:56:24.345Z,96133.84
2018-11-01T18:58:53.474Z,96126.92
2018-11-01T19:01:21.774Z,96129.57
2018-11-01T19:03:50.113Z,96130.22
2018-11-01T19:06:18.450Z,96136.80
2018-11-01T19:08:47.169Z,96136.30
2018-11-01T19:11:15.583Z,96136.16
2018-11-01T19:13:45.357Z,96137.50
2018-11-01T19:16:13.643Z,96141.50
2018-11-01T19:18:42.479Z,96141.52
2018-11-01T19:21:11.009Z,96144.55
2018-11-01T19:23:39.369Z,96148.70
2018-11-01T19:26:07.769Z,96151.02
2018-11-01T19:28:36.507Z,96158.98
2018-11-01T19:31:05.125Z,96163.96
2018-11-01T19:33:34.202Z,96161.18
2018-11-01T19:36:02.775Z,96163.34
2018-11-01T19:38:31.089Z,96166.34
2018-11-01T19:40:59.570Z,96168.63
2018-11-01T19:43:28.105Z,96171.26
2018-11-01T19:45:56.423Z,96164.33
2018-11-01T19:48:25.247Z,96169.30
2018-11-01T19:50:53.470Z,96172.41
2018-11-01T19:53:21.971Z,96164.84
2018-11-01T19:55:50.381Z,96179.20
2018-11-01T19:58:18.682Z,96170.62
2018-11-01T20:00:46.985Z,96176.08
2018-11-01T20:03:15.371Z,96187.97
2018-11-01T20:05:43.766Z,96188.48
2018-11-01T20:08:12.265Z,96199.88
2018-11-01T20:10:40.710Z,96203.99
2018-11-01T20:13:09.260Z,96198.39
2018-11-01T20:15:37.561Z,96224.31
2018-11-01T20:18:06.116Z,96226.13
2018-11-01T20:20:34.452Z,96232.88
2018-11-01T20:23:02.832Z,96231.91
2018-11-01T20:25:32.102Z,96236.84
2018-11-01T20:28:00.607Z,96244.30
2018-11-01T20:30:29.022Z,96252.69
2018-11-01T20:32:57.351Z,96267.56
2018-11-01T20:35:25.638Z,96280.10
2018-11-01T20:37:53.981Z,96288.18
2018-11-01T20:40:22.365Z,96277.11
2018-11-01T20:42:50.799Z,96276.13
2018-11-01T20:45:19.227Z,96275.28
2018-11-01T20:47:47.640Z,96284.88
2018-11-01T20:50:16.136Z,96294.11
2018-11-01T20:52:44.596Z,96303.05
2018-11-01T20:55:13.748Z,96309.96
2018-11-01T20:57:42.309Z,96327.28
2018-11-01T21:00:14.171Z,96335.85
2018-11-01T21:02:42.899Z,96339.80
2018-11-01T21:05:11.599Z,96345.91
2018-11-01T21:07:40.325Z,96347.05
2018-11-01T21:10:09.674Z,96350.33
2018-11-01T21:12:38.851Z,96363.61
2018-11-01T21:15:09.098Z,96375.98
2018-11-01T21:17:37.504Z,96376.80
2018-11-01T21:20:06.318Z,96378.47
2018-11-01T21:22:34.606Z,96388.00
2018-11-01T21:25:03.821Z,96391.49
2018-11-01T21:27:34.652Z,96407.66
2018-11-01T21:30:03.178Z,96413.29
2018-11-01T21:32:31.570Z,96420.36
2018-11-01T21:34:59.885Z,96422.83
2018-11-01T21:37:28.368Z,96421.84
2018-11-01T21:39:56.794Z,96414.52
2018-11-01T21:42:25.144Z,96422.44
2018-11-01T21:44:54.350Z,96434.49
2018-11-01T21:47:22.865Z,96429.87
2018-11-01T21:49:51.193Z,96431.19
2018-11-01T21:52:19.586Z,96431.80
2018-11-01T21:54:48.003Z,96424.91
2018-11-01T21:57:17.822Z,96429.89
2018-11-01T21:59:46.157Z,96447.03
2018-11-01T22:02:16.190Z,96455.42
2018-11-01T22:04:44.632Z,96461.20
2018-11-01T22:07:13.759Z,96467.97
2018-11-01T22:09:42.155Z,96474.27
2018-11-01T22:12:10.391Z,96463.06
2018-11-01T22:14:40.542Z,96439.44
2018-11-01T22:17:08.944Z,96439.13
2018-11-01T22:19:37.235Z,96449.83
2018-11-01T22:22:05.968Z,96472.67
2018-11-01T22:24:34.476Z,96477.38
2018-11-01T22:27:02.884Z,96473.51
2018-11-01T22:29:31.167Z,96476.38
2018-11-01T22:31:59.493Z,96495.20
2018-11-01T22:34:30.393Z,96496.60
2018-11-01T22:36:58.805Z,96507.39
2018-11-01T22:39:27.098Z,96511.66
2018-11-01T22:41:55.522Z,96514.39
2018-11-01T22:44:23.807Z,96513.44
2018-11-01T22:46:52.202Z,96514.71
2018-11-01T22:49:20.478Z,96511.89
2018-11-01T22:51:48.782Z,96506.27
2018-11-01T22:54:17.170Z,96508.13
2018-11-01T22:56:45.514Z,96507.88
2018-11-01T22:59:14.738Z,96510.55
2018-11-01T23:01:43.160Z,96509.56
2018-11-01T23:04:11.465Z,96509.13
2018-11-01T23:06:41.094Z,96505.51
2018-11-01T23:09:10.602Z,96499.27
2018-11-01T23:11:40.782Z,96497.45
2018-11-01T23:14:09.196Z,96503.69
2018-11-01T23:16:38.675Z,96503.37
2018-11-01T23:19:07.087Z,96498.95
2018-11-01T23:21:35.448Z,96505.58
2018-11-01T23:24:03.910Z,96500.66
2018-11-01T23:26:32.483Z,96493.58
2018-11-01T23:29:00.783Z,96500.80
2018-11-01T23:31:29.765Z,96512.34
2018-11-01T23:33:58.031Z,96518.54
2018-11-01T23:36:25.620Z,96528.27
2018-11-01T23:38:59.313Z,96534.39
2018-11-01T23:41:32.777Z,96535.75
2018-11-01T23:44:06.563Z,96542.84
2018-11-01T23:46:41.448Z,96545.47
2018-11-01T23:49:13.360Z,96552.38
2018-11-01T23:51:42.259Z,96555.19
2018-11-01T23:54:10.572Z,96552.70
2018-11-01T23:56:38.976Z,96553.97
2018-11-01T23:59:07.321Z,96554.08
